sensor_id;sensor_type;location;lat;lon;timestamp;temperature;humidity
57444;DHT22;43289;52.962;6.196;2023-03-01T00:01:24;-1.00;99.90
57444;DHT22;43289;52.962;6.196;2023-03-01T00:03:50;-0.90;99.90
57444;DHT22;43289;52.962;6.196;2023-03-01T00:06:16;-1.00;99.90
57444;DHT22;43289;52.962;6.196;2023-03-01T00:08:42;-1.00;99.90
57444;DHT22;43289;52.962;6.196;2023-03-01T00:13:36;-1.20;99.90
57444;DHT22;43289;52.962;6.196;2023-03-01T00:16:11;-1.30;99.90
57444;DHT22;43289;52.962;6.196;2023-03-01T00:18:38;-1.40;99.90
57444;DHT22;43289;52.962;6.196;2023-03-01T00:21:04;-1.40;99.90
57444;DHT22;43289;52.962;6.196;2023-03-01T00:23:31;-1.30;99.90
57444;DHT22;43289;52.962;6.196;2023-03-01T00:25:57;-1.40;99.90
57444;DHT22;43289;52.962;6.196;2023-03-01T00:28:23;-1.40;99.90
57444;DHT22;43289;52.962;6.196;2023-03-01T00:30:48;-1.40;99.90
57444;DHT22;43289;52.962;6.196;2023-03-01T00:33:14;-1.40;99.90
57444;DHT22;43289;52.962;6.196;2023-03-01T00:35:40;-1.30;99.90
57444;DHT22;43289;52.962;6.196;2023-03-01T00:38:06;-1.40;99.90
57444;DHT22;43289;52.962;6.196;2023-03-01T00:40:34;-1.40;99.90
57444;DHT22;43289;52.962;6.196;2023-03-01T00:43:00;-1.40;99.90
57444;DHT22;43289;52.962;6.196;2023-03-01T00:45:26;-1.50;99.90
57444;DHT22;43289;52.962;6.196;2023-03-01T00:47:53;-1.50;99.90
57444;DHT22;43289;52.962;6.196;2023-03-01T00:50:19;-1.50;99.90
57444;DHT22;43289;52.962;6.196;2023-03-01T00:52:45;-1.50;99.90
57444;DHT22;43289;52.962;6.196;2023-03-01T00:55:11;-1.50;99.90
57444;DHT22;43289;52.962;6.196;2023-03-01T00:57:37;-1.50;99.90
57444;DHT22;43289;52.962;6.196;2023-03-01T01:00:04;-1.40;99.90
57444;DHT22;43289;52.962;6.196;2023-03-01T01:02:31;-1.50;99.90
57444;DHT22;43289;52.962;6.196;2023-03-01T01:04:57;-1.50;99.90
57444;DHT22;43289;52.962;6.196;2023-03-01T01:07:23;-1.50;99.90
57444;DHT22;43289;52.962;6.196;2023-03-01T01:09:48;-1.50;99.90
57444;DHT22;43289;52.962;6.196;2023-03-01T01:12:14;-1.50;99.90
57444;DHT22;43289;52.962;6.196;2023-03-01T01:14:39;-1.50;99.90
57444;DHT22;43289;52.962;6.196;2023-03-01T01:17:05;-1.50;99.90
57444;DHT22;43289;52.962;6.196;2023-03-01T01:19:31;-1.50;99.90
57444;DHT22;43289;52.962;6.196;2023-03-01T01:21:56;-1.50;99.90
57444;DHT22;43289;52.962;6.196;2023-03-01T01:24:22;-1.50;99.90
57444;DHT22;43289;52.962;6.196;2023-03-01T01:26:47;-1.60;99.90
57444;DHT22;43289;52.962;6.196;2023-03-01T01:29:13;-1.80;99.90
57444;DHT22;43289;52.962;6.196;2023-03-01T01:31:40;-2.00;99.90
57444;DHT22;43289;52.962;6.196;2023-03-01T01:34:08;-2.10;99.90
57444;DHT22;43289;52.962;6.196;2023-03-01T01:36:34;-2.10;99.90
57444;DHT22;43289;52.962;6.196;2023-03-01T01:39:00;-2.10;99.90
57444;DHT22;43289;52.962;6.196;2023-03-01T01:41:28;-2.10;99.90
57444;DHT22;43289;52.962;6.196;2023-03-01T01:47:01;-2.10;99.90
57444;DHT22;43289;52.962;6.196;2023-03-01T01:52:00;-2.10;99.90
57444;DHT22;43289;52.962;6.196;2023-03-01T01:54:50;-2.00;99.90
57444;DHT22;43289;52.962;6.196;2023-03-01T01:57:32;-2.00;99.90
57444;DHT22;43289;52.962;6.196;2023-03-01T02:00:14;-2.00;99.90
57444;DHT22;43289;52.962;6.196;2023-03-01T02:02:41;-2.00;99.90
57444;DHT22;43289;52.962;6.196;2023-03-01T02:05:17;-2.00;99.90
57444;DHT22;43289;52.962;6.196;2023-03-01T02:07:46;-2.00;99.90
57444;DHT22;43289;52.962;6.196;2023-03-01T02:10:12;-2.10;99.90
57444;DHT22;43289;52.962;6.196;2023-03-01T02:12:38;-2.10;99.90
57444;DHT22;43289;52.962;6.196;2023-03-01T02:15:05;-2.00;99.90
57444;DHT22;43289;52.962;6.196;2023-03-01T02:17:31;-2.10;99.90
57444;DHT22;43289;52.962;6.196;2023-03-01T02:22:37;-2.10;99.90
57444;DHT22;43289;52.962;6.196;2023-03-01T02:27:54;-1.90;99.90
57444;DHT22;43289;52.962;6.196;2023-03-01T02:30:24;-2.00;99.90
57444;DHT22;43289;52.962;6.196;2023-03-01T02:32:51;-1.90;99.90
57444;DHT22;43289;52.962;6.196;2023-03-01T02:35:18;-1.80;99.90
57444;DHT22;43289;52.962;6.196;2023-03-01T02:37:45;-1.90;99.90
57444;DHT22;43289;52.962;6.196;2023-03-01T02:40:17;-1.90;99.90
57444;DHT22;43289;52.962;6.196;2023-03-01T02:42:53;-1.90;99.90
57444;DHT22;43289;52.962;6.196;2023-03-01T02:45:19;-1.90;99.90
57444;DHT22;43289;52.962;6.196;2023-03-01T02:47:45;-2.00;99.90
57444;DHT22;43289;52.962;6.196;2023-03-01T02:50:40;-1.90;99.90
57444;DHT22;43289;52.962;6.196;2023-03-01T02:53:17;-2.00;99.90
57444;DHT22;43289;52.962;6.196;2023-03-01T02:55:46;-2.10;99.90
57444;DHT22;43289;52.962;6.196;2023-03-01T02:58:12;-2.20;99.90
57444;DHT22;43289;52.962;6.196;2023-03-01T03:00:40;-2.20;99.90
57444;DHT22;43289;52.962;6.196;2023-03-01T03:03:13;-2.20;99.90
57444;DHT22;43289;52.962;6.196;2023-03-01T03:05:39;-2.20;99.90
57444;DHT22;43289;52.962;6.196;2023-03-01T03:08:04;-2.20;99.90
57444;DHT22;43289;52.962;6.196;2023-03-01T03:10:35;-2.20;99.90
57444;DHT22;43289;52.962;6.196;2023-03-01T03:13:03;-2.20;99.90
57444;DHT22;43289;52.962;6.196;2023-03-01T03:15:29;-2.30;99.90
57444;DHT22;43289;52.962;6.196;2023-03-01T03:17:56;-2.30;99.90
57444;DHT22;43289;52.962;6.196;2023-03-01T03:20:25;-2.30;99.90
57444;DHT22;43289;52.962;6.196;2023-03-01T03:22:54;-2.30;99.90
57444;DHT22;43289;52.962;6.196;2023-03-01T03:25:20;-2.40;99.90
57444;DHT22;43289;52.962;6.196;2023-03-01T03:27:48;-2.50;99.90
57444;DHT22;43289;52.962;6.196;2023-03-01T03:30:18;-2.50;99.90
57444;DHT22;43289;52.962;6.196;2023-03-01T03:32:46;-2.50;99.90
57444;DHT22;43289;52.962;6.196;2023-03-01T03:35:19;-2.40;99.90
57444;DHT22;43289;52.962;6.196;2023-03-01T03:37:45;-2.60;99.90
57444;DHT22;43289;52.962;6.196;2023-03-01T03:40:40;-2.60;99.90
57444;DHT22;43289;52.962;6.196;2023-03-01T03:43:08;-2.60;99.90
57444;DHT22;43289;52.962;6.196;2023-03-01T03:45:34;-2.60;99.90
57444;DHT22;43289;52.962;6.196;2023-03-01T03:48:02;-2.70;99.90
57444;DHT22;43289;52.962;6.196;2023-03-01T03:50:27;-2.70;99.90
57444;DHT22;43289;52.962;6.196;2023-03-01T03:52:53;-2.70;99.90
57444;DHT22;43289;52.962;6.196;2023-03-01T03:55:22;-2.80;99.90
57444;DHT22;43289;52.962;6.196;2023-03-01T03:57:48;-2.80;99.90
57444;DHT22;43289;52.962;6.196;2023-03-01T04:00:21;-2.80;99.90
57444;DHT22;43289;52.962;6.196;2023-03-01T04:02:50;-2.80;99.90
57444;DHT22;43289;52.962;6.196;2023-03-01T04:05:18;-3.00;99.90
57444;DHT22;43289;52.962;6.196;2023-03-01T04:07:45;-2.90;99.90
57444;DHT22;43289;52.962;6.196;2023-03-01T04:10:15;-3.00;99.90
57444;DHT22;43289;52.962;6.196;2023-03-01T04:12:41;-3.10;99.90
57444;DHT22;43289;52.962;6.196;2023-03-01T04:15:11;-3.10;99.90
57444;DHT22;43289;52.962;6.196;2023-03-01T04:17:44;-3.00;99.90
57444;DHT22;43289;52.962;6.196;2023-03-01T04:20:18;-3.10;99.90
57444;DHT22;43289;52.962;6.196;2023-03-01T04:25:51;-3.20;99.90
57444;DHT22;43289;52.962;6.196;2023-03-01T04:28:24;-3.30;99.90
57444;DHT22;43289;52.962;6.196;2023-03-01T04:30:51;-3.30;99.90
57444;DHT22;43289;52.962;6.196;2023-03-01T04:33:17;-3.30;99.90
57444;DHT22;43289;52.962;6.196;2023-03-01T04:35:42;-3.40;99.90
57444;DHT22;43289;52.962;6.196;2023-03-01T04:38:08;-3.40;99.90
57444;DHT22;43289;52.962;6.196;2023-03-01T04:45:27;-3.30;99.90
57444;DHT22;43289;52.962;6.196;2023-03-01T04:47:53;-3.60;99.90
57444;DHT22;43289;52.962;6.196;2023-03-01T04:57:39;-3.70;99.90
57444;DHT22;43289;52.962;6.196;2023-03-01T05:00:07;-3.60;99.90
57444;DHT22;43289;52.962;6.196;2023-03-01T05:02:49;-3.70;99.90
57444;DHT22;43289;52.962;6.196;2023-03-01T05:05:26;-3.70;99.90
57444;DHT22;43289;52.962;6.196;2023-03-01T05:07:54;-3.60;99.90
57444;DHT22;43289;52.962;6.196;2023-03-01T05:10:28;-3.60;99.90
57444;DHT22;43289;52.962;6.196;2023-03-01T05:12:57;-3.60;99.90
57444;DHT22;43289;52.962;6.196;2023-03-01T05:15:27;-3.60;99.90
57444;DHT22;43289;52.962;6.196;2023-03-01T05:17:54;-3.60;99.90
57444;DHT22;43289;52.962;6.196;2023-03-01T05:20:21;-3.60;99.90
57444;DHT22;43289;52.962;6.196;2023-03-01T05:22:49;-3.60;99.90
57444;DHT22;43289;52.962;6.196;2023-03-01T05:25:14;-3.60;99.90
57444;DHT22;43289;52.962;6.196;2023-03-01T05:27:40;-3.60;99.90
57444;DHT22;43289;52.962;6.196;2023-03-01T05:30:06;-3.60;99.90
57444;DHT22;43289;52.962;6.196;2023-03-01T05:32:46;-3.60;99.90
57444;DHT22;43289;52.962;6.196;2023-03-01T05:35:14;-3.70;99.90
57444;DHT22;43289;52.962;6.196;2023-03-01T05:37:44;-3.70;99.90
57444;DHT22;43289;52.962;6.196;2023-03-01T05:40:13;-3.70;99.90
57444;DHT22;43289;52.962;6.196;2023-03-01T05:42:50;-3.80;99.90
57444;DHT22;43289;52.962;6.196;2023-03-01T05:45:17;-3.70;99.90
57444;DHT22;43289;52.962;6.196;2023-03-01T05:47:44;-3.80;99.90
57444;DHT22;43289;52.962;6.196;2023-03-01T05:50:16;-3.80;99.90
57444;DHT22;43289;52.962;6.196;2023-03-01T05:52:49;-3.80;99.90
57444;DHT22;43289;52.962;6.196;2023-03-01T05:55:20;-3.90;99.90
57444;DHT22;43289;52.962;6.196;2023-03-01T05:57:46;-3.90;99.90
57444;DHT22;43289;52.962;6.196;2023-03-01T06:00:13;-3.90;99.90
57444;DHT22;43289;52.962;6.196;2023-03-01T06:02:39;-3.90;99.90
57444;DHT22;43289;52.962;6.196;2023-03-01T06:05:07;-3.90;99.90
57444;DHT22;43289;52.962;6.196;2023-03-01T06:07:33;-3.90;99.90
57444;DHT22;43289;52.962;6.196;2023-03-01T06:09:59;-3.90;99.90
57444;DHT22;43289;52.962;6.196;2023-03-01T06:12:24;-3.90;99.90
57444;DHT22;43289;52.962;6.196;2023-03-01T06:14:50;-3.90;99.90
57444;DHT22;43289;52.962;6.196;2023-03-01T06:17:15;-3.90;99.90
57444;DHT22;43289;52.962;6.196;2023-03-01T06:19:41;-3.80;99.90
57444;DHT22;43289;52.962;6.196;2023-03-01T06:22:07;-3.90;99.90
57444;DHT22;43289;52.962;6.196;2023-03-01T06:24:33;-3.90;99.90
57444;DHT22;43289;52.962;6.196;2023-03-01T06:26:59;-3.90;99.90
57444;DHT22;43289;52.962;6.196;2023-03-01T06:29:24;-3.90;99.90
57444;DHT22;43289;52.962;6.196;2023-03-01T06:31:50;-3.90;99.90
57444;DHT22;43289;52.962;6.196;2023-03-01T06:34:16;-3.90;99.90
57444;DHT22;43289;52.962;6.196;2023-03-01T06:36:41;-3.90;99.90
57444;DHT22;43289;52.962;6.196;2023-03-01T06:39:07;-3.90;99.90
57444;DHT22;43289;52.962;6.196;2023-03-01T06:41:33;-3.80;99.90
57444;DHT22;43289;52.962;6.196;2023-03-01T06:43:59;-3.90;99.90
57444;DHT22;43289;52.962;6.196;2023-03-01T06:46:25;-3.90;99.90
57444;DHT22;43289;52.962;6.196;2023-03-01T06:48:51;-3.90;99.90
57444;DHT22;43289;52.962;6.196;2023-03-01T06:51:17;-3.90;99.90
57444;DHT22;43289;52.962;6.196;2023-03-01T06:53:42;-3.80;99.90
57444;DHT22;43289;52.962;6.196;2023-03-01T06:56:08;-3.80;99.90
57444;DHT22;43289;52.962;6.196;2023-03-01T06:58:33;-3.70;99.90
57444;DHT22;43289;52.962;6.196;2023-03-01T07:00:59;-3.70;99.90
57444;DHT22;43289;52.962;6.196;2023-03-01T07:03:24;-3.60;99.90
57444;DHT22;43289;52.962;6.196;2023-03-01T07:05:50;-3.80;99.90
57444;DHT22;43289;52.962;6.196;2023-03-01T07:08:18;-3.70;99.90
57444;DHT22;43289;52.962;6.196;2023-03-01T07:10:45;-3.60;99.90
57444;DHT22;43289;52.962;6.196;2023-03-01T07:13:10;-3.60;99.90
57444;DHT22;43289;52.962;6.196;2023-03-01T07:15:36;-3.60;99.90
57444;DHT22;43289;52.962;6.196;2023-03-01T07:18:02;-3.50;99.90
57444;DHT22;43289;52.962;6.196;2023-03-01T07:20:27;-3.50;99.90
57444;DHT22;43289;52.962;6.196;2023-03-01T07:22:54;-3.40;99.90
57444;DHT22;43289;52.962;6.196;2023-03-01T07:25:20;-3.40;99.90
57444;DHT22;43289;52.962;6.196;2023-03-01T07:27:51;-3.30;99.90
57444;DHT22;43289;52.962;6.196;2023-03-01T07:30:17;-3.20;99.90
57444;DHT22;43289;52.962;6.196;2023-03-01T07:32:43;-3.20;99.90
57444;DHT22;43289;52.962;6.196;2023-03-01T07:35:11;-3.10;99.90
57444;DHT22;43289;52.962;6.196;2023-03-01T07:37:37;-3.00;99.90
57444;DHT22;43289;52.962;6.196;2023-03-01T07:44:55;-2.90;99.90
57444;DHT22;43289;52.962;6.196;2023-03-01T07:54:39;-2.40;99.90
57444;DHT22;43289;52.962;6.196;2023-03-01T07:57:04;-1.70;99.90
57444;DHT22;43289;52.962;6.196;2023-03-01T07:59:30;-1.80;99.90
57444;DHT22;43289;52.962;6.196;2023-03-01T08:01:57;-1.60;99.90
57444;DHT22;43289;52.962;6.196;2023-03-01T08:04:23;-1.50;99.90
57444;DHT22;43289;52.962;6.196;2023-03-01T08:06:50;-1.40;99.90
57444;DHT22;43289;52.962;6.196;2023-03-01T08:09:16;-1.20;99.90
57444;DHT22;43289;52.962;6.196;2023-03-01T08:11:42;-1.10;99.90
57444;DHT22;43289;52.962;6.196;2023-03-01T08:14:07;-1.00;99.90
57444;DHT22;43289;52.962;6.196;2023-03-01T08:16:33;-0.70;99.90
57444;DHT22;43289;52.962;6.196;2023-03-01T08:19:18;-0.70;99.90
57444;DHT22;43289;52.962;6.196;2023-03-01T08:21:44;-0.60;99.90
57444;DHT22;43289;52.962;6.196;2023-03-01T08:24:09;-0.50;99.90
57444;DHT22;43289;52.962;6.196;2023-03-01T08:26:38;-0.30;99.90
57444;DHT22;43289;52.962;6.196;2023-03-01T08:29:03;-0.10;99.90
57444;DHT22;43289;52.962;6.196;2023-03-01T08:31:35;0.00;99.90
57444;DHT22;43289;52.962;6.196;2023-03-01T08:34:03;0.10;99.90
57444;DHT22;43289;52.962;6.196;2023-03-01T08:36:40;0.20;99.90
57444;DHT22;43289;52.962;6.196;2023-03-01T08:39:07;0.30;99.90
57444;DHT22;43289;52.962;6.196;2023-03-01T08:41:33;0.50;99.90
57444;DHT22;43289;52.962;6.196;2023-03-01T08:43:58;0.60;99.90
57444;DHT22;43289;52.962;6.196;2023-03-01T08:46:29;0.70;99.90
57444;DHT22;43289;52.962;6.196;2023-03-01T08:48:55;0.90;99.90
57444;DHT22;43289;52.962;6.196;2023-03-01T08:51:22;1.00;99.90
57444;DHT22;43289;52.962;6.196;2023-03-01T08:53:48;1.10;99.90
57444;DHT22;43289;52.962;6.196;2023-03-01T08:56:14;1.30;99.90
57444;DHT22;43289;52.962;6.196;2023-03-01T08:58:44;1.30;99.90
57444;DHT22;43289;52.962;6.196;2023-03-01T09:01:11;1.40;99.90
57444;DHT22;43289;52.962;6.196;2023-03-01T09:03:37;1.50;99.90
57444;DHT22;43289;52.962;6.196;2023-03-01T09:06:05;1.70;99.90
57444;DHT22;43289;52.962;6.196;2023-03-01T09:08:38;1.80;99.90
57444;DHT22;43289;52.962;6.196;2023-03-01T09:11:04;2.00;99.90
57444;DHT22;43289;52.962;6.196;2023-03-01T09:13:30;2.20;99.90
57444;DHT22;43289;52.962;6.196;2023-03-01T09:16:00;2.40;99.90
57444;DHT22;43289;52.962;6.196;2023-03-01T09:18:26;2.70;99.90
57444;DHT22;43289;52.962;6.196;2023-03-01T09:20:52;3.10;99.90
57444;DHT22;43289;52.962;6.196;2023-03-01T09:23:20;3.40;99.90
57444;DHT22;43289;52.962;6.196;2023-03-01T09:25:46;3.60;99.90
57444;DHT22;43289;52.962;6.196;2023-03-01T09:28:12;3.90;99.90
57444;DHT22;43289;52.962;6.196;2023-03-01T09:30:37;4.10;99.90
57444;DHT22;43289;52.962;6.196;2023-03-01T09:33:03;4.40;99.90
57444;DHT22;43289;52.962;6.196;2023-03-01T09:35:28;4.60;99.90
57444;DHT22;43289;52.962;6.196;2023-03-01T09:37:54;4.70;99.90
57444;DHT22;43289;52.962;6.196;2023-03-01T09:40:23;4.70;99.90
57444;DHT22;43289;52.962;6.196;2023-03-01T09:43:04;5.00;99.90
57444;DHT22;43289;52.962;6.196;2023-03-01T09:45:37;5.10;99.90
57444;DHT22;43289;52.962;6.196;2023-03-01T09:48:04;5.30;99.90
57444;DHT22;43289;52.962;6.196;2023-03-01T09:50:41;5.50;99.90
57444;DHT22;43289;52.962;6.196;2023-03-01T09:53:19;5.70;99.90
57444;DHT22;43289;52.962;6.196;2023-03-01T09:58:34;5.90;99.90
57444;DHT22;43289;52.962;6.196;2023-03-01T10:01:32;6.10;99.90
57444;DHT22;43289;52.962;6.196;2023-03-01T10:04:09;6.30;99.90
57444;DHT22;43289;52.962;6.196;2023-03-01T10:06:36;6.60;99.90
57444;DHT22;43289;52.962;6.196;2023-03-01T10:09:21;6.60;99.90
57444;DHT22;43289;52.962;6.196;2023-03-01T10:11:51;6.70;99.90
57444;DHT22;43289;52.962;6.196;2023-03-01T10:17:00;7.00;99.90
57444;DHT22;43289;52.962;6.196;2023-03-01T10:19:40;7.10;99.90
57444;DHT22;43289;52.962;6.196;2023-03-01T10:22:22;7.30;99.90
57444;DHT22;43289;52.962;6.196;2023-03-01T10:24:54;7.30;99.90
57444;DHT22;43289;52.962;6.196;2023-03-01T10:27:25;7.30;99.90
57444;DHT22;43289;52.962;6.196;2023-03-01T10:30:16;7.40;99.90
57444;DHT22;43289;52.962;6.196;2023-03-01T10:32:44;7.40;99.90
57444;DHT22;43289;52.962;6.196;2023-03-01T10:35:25;7.40;99.90
57444;DHT22;43289;52.962;6.196;2023-03-01T10:40:30;7.30;99.90
57444;DHT22;43289;52.962;6.196;2023-03-01T10:42:58;7.60;99.90
57444;DHT22;43289;52.962;6.196;2023-03-01T10:45:38;7.80;99.90
57444;DHT22;43289;52.962;6.196;2023-03-01T10:48:14;8.00;99.90
57444;DHT22;43289;52.962;6.196;2023-03-01T10:50:45;8.10;99.90
57444;DHT22;43289;52.962;6.196;2023-03-01T10:56:09;8.20;99.90
57444;DHT22;43289;52.962;6.196;2023-03-01T10:58:37;8.40;99.90
57444;DHT22;43289;52.962;6.196;2023-03-01T11:01:05;8.40;99.90
57444;DHT22;43289;52.962;6.196;2023-03-01T11:03:38;8.20;99.90
57444;DHT22;43289;52.962;6.196;2023-03-01T11:08:38;8.50;99.90
57444;DHT22;43289;52.962;6.196;2023-03-01T11:13:54;8.60;99.90
57444;DHT22;43289;52.962;6.196;2023-03-01T11:19:13;8.70;99.90
57444;DHT22;43289;52.962;6.196;2023-03-01T11:24:42;8.70;99.90
57444;DHT22;43289;52.962;6.196;2023-03-01T11:27:18;8.70;99.90
57444;DHT22;43289;52.962;6.196;2023-03-01T11:29:51;8.80;99.90
57444;DHT22;43289;52.962;6.196;2023-03-01T11:32:21;9.00;99.90
57444;DHT22;43289;52.962;6.196;2023-03-01T11:34:59;9.30;99.90
57444;DHT22;43289;52.962;6.196;2023-03-01T11:37:41;9.50;99.90
57444;DHT22;43289;52.962;6.196;2023-03-01T11:40:33;9.40;99.90
57444;DHT22;43289;52.962;6.196;2023-03-01T11:48:53;8.90;99.90
57444;DHT22;43289;52.962;6.196;2023-03-01T11:57:33;8.70;99.90
57444;DHT22;43289;52.962;6.196;2023-03-01T12:00:44;8.90;99.90
57444;DHT22;43289;52.962;6.196;2023-03-01T12:08:42;8.80;99.90
57444;DHT22;43289;52.962;6.196;2023-03-01T12:11:28;8.80;99.90
57444;DHT22;43289;52.962;6.196;2023-03-01T12:19:54;8.60;99.90
57444;DHT22;43289;52.962;6.196;2023-03-01T12:22:45;8.60;99.90
57444;DHT22;43289;52.962;6.196;2023-03-01T12:28:12;8.60;99.90
57444;DHT22;43289;52.962;6.196;2023-03-01T12:33:47;8.70;99.90
57444;DHT22;43289;52.962;6.196;2023-03-01T12:36:38;8.70;99.90
57444;DHT22;43289;52.962;6.196;2023-03-01T12:39:19;8.80;99.90
57444;DHT22;43289;52.962;6.196;2023-03-01T12:41:48;8.70;99.90
57444;DHT22;43289;52.962;6.196;2023-03-01T12:44:39;8.80;99.90
57444;DHT22;43289;52.962;6.196;2023-03-01T12:47:19;8.70;99.90
57444;DHT22;43289;52.962;6.196;2023-03-01T12:49:54;8.70;99.90
57444;DHT22;43289;52.962;6.196;2023-03-01T12:55:34;8.70;99.90
57444;DHT22;43289;52.962;6.196;2023-03-01T13:06:25;8.90;99.90
57444;DHT22;43289;52.962;6.196;2023-03-01T13:09:22;8.80;99.90
57444;DHT22;43289;52.962;6.196;2023-03-01T13:11:44;8.70;99.90
57444;DHT22;43289;52.962;6.196;2023-03-01T13:16:52;8.50;99.90
57444;DHT22;43289;52.962;6.196;2023-03-01T13:19:23;8.40;99.90
57444;DHT22;43289;52.962;6.196;2023-03-01T13:21:51;8.20;99.90
57444;DHT22;43289;52.962;6.196;2023-03-01T13:24:39;8.10;99.90
57444;DHT22;43289;52.962;6.196;2023-03-01T13:32:20;7.90;99.90
57444;DHT22;43289;52.962;6.196;2023-03-01T13:34:48;7.80;99.90
57444;DHT22;43289;52.962;6.196;2023-03-01T13:37:25;7.80;99.90
57444;DHT22;43289;52.962;6.196;2023-03-01T13:39:51;7.90;99.90
57444;DHT22;43289;52.962;6.196;2023-03-01T13:42:37;7.90;99.90
57444;DHT22;43289;52.962;6.196;2023-03-01T13:45:05;7.90;99.90
57444;DHT22;43289;52.962;6.196;2023-03-01T13:47:39;7.90;99.90
57444;DHT22;43289;52.962;6.196;2023-03-01T13:50:15;7.90;99.90
57444;DHT22;43289;52.962;6.196;2023-03-01T13:52:48;7.90;99.90
57444;DHT22;43289;52.962;6.196;2023-03-01T13:57:41;7.90;99.90
57444;DHT22;43289;52.962;6.196;2023-03-01T14:00:30;7.90;99.90
57444;DHT22;43289;52.962;6.196;2023-03-01T14:03:04;7.80;99.90
57444;DHT22;43289;52.962;6.196;2023-03-01T14:05:31;7.80;99.90
57444;DHT22;43289;52.962;6.196;2023-03-01T14:07:57;7.70;99.90
57444;DHT22;43289;52.962;6.196;2023-03-01T14:10:28;7.80;99.90
57444;DHT22;43289;52.962;6.196;2023-03-01T14:18:55;7.80;99.90
57444;DHT22;43289;52.962;6.196;2023-03-01T14:21:23;7.80;99.90
57444;DHT22;43289;52.962;6.196;2023-03-01T14:23:50;7.70;99.90
57444;DHT22;43289;52.962;6.196;2023-03-01T14:26:21;7.80;99.90
57444;DHT22;43289;52.962;6.196;2023-03-01T14:28:47;7.80;99.90
57444;DHT22;43289;52.962;6.196;2023-03-01T14:31:36;7.80;99.90
57444;DHT22;43289;52.962;6.196;2023-03-01T14:34:03;7.80;99.90
57444;DHT22;43289;52.962;6.196;2023-03-01T14:36:31;7.70;99.90
57444;DHT22;43289;52.962;6.196;2023-03-01T14:38:57;7.80;99.90
57444;DHT22;43289;52.962;6.196;2023-03-01T14:41:33;7.80;99.90
57444;DHT22;43289;52.962;6.196;2023-03-01T14:44:05;7.80;99.90
57444;DHT22;43289;52.962;6.196;2023-03-01T14:46:40;7.70;99.90
57444;DHT22;43289;52.962;6.196;2023-03-01T14:49:16;7.70;99.90
57444;DHT22;43289;52.962;6.196;2023-03-01T14:51:49;7.70;99.90
57444;DHT22;43289;52.962;6.196;2023-03-01T14:54:47;7.70;99.90
57444;DHT22;43289;52.962;6.196;2023-03-01T14:57:23;7.70;99.90
57444;DHT22;43289;52.962;6.196;2023-03-01T14:59:51;7.70;99.90
57444;DHT22;43289;52.962;6.196;2023-03-01T15:02:37;7.70;99.90
57444;DHT22;43289;52.962;6.196;2023-03-01T15:05:04;7.60;99.90
57444;DHT22;43289;52.962;6.196;2023-03-01T15:07:32;7.60;99.90
57444;DHT22;43289;52.962;6.196;2023-03-01T15:09:59;7.50;99.90
57444;DHT22;43289;52.962;6.196;2023-03-01T15:14:51;7.40;99.90
57444;DHT22;43289;52.962;6.196;2023-03-01T15:17:37;7.50;99.90
57444;DHT22;43289;52.962;6.196;2023-03-01T15:20:16;7.50;99.90
57444;DHT22;43289;52.962;6.196;2023-03-01T15:22:45;7.50;99.90
57444;DHT22;43289;52.962;6.196;2023-03-01T15:25:18;7.50;99.90
57444;DHT22;43289;52.962;6.196;2023-03-01T15:27:46;7.50;99.90
57444;DHT22;43289;52.962;6.196;2023-03-01T15:30:27;7.50;99.90
57444;DHT22;43289;52.962;6.196;2023-03-01T15:35:48;7.40;99.90
57444;DHT22;43289;52.962;6.196;2023-03-01T15:38:36;7.40;99.90
57444;DHT22;43289;52.962;6.196;2023-03-01T15:41:22;7.30;99.90
57444;DHT22;43289;52.962;6.196;2023-03-01T15:43:48;7.30;99.90
57444;DHT22;43289;52.962;6.196;2023-03-01T15:46:20;7.30;99.90
57444;DHT22;43289;52.962;6.196;2023-03-01T15:48:48;7.20;99.90
57444;DHT22;43289;52.962;6.196;2023-03-01T15:51:21;7.20;99.90
57444;DHT22;43289;52.962;6.196;2023-03-01T15:53:51;7.20;99.90
57444;DHT22;43289;52.962;6.196;2023-03-01T15:56:18;7.10;99.90
57444;DHT22;43289;52.962;6.196;2023-03-01T15:58:44;7.20;99.90
57444;DHT22;43289;52.962;6.196;2023-03-01T16:01:14;7.10;99.90
57444;DHT22;43289;52.962;6.196;2023-03-01T16:03:42;7.10;99.90
57444;DHT22;43289;52.962;6.196;2023-03-01T16:06:11;7.10;99.90
57444;DHT22;43289;52.962;6.196;2023-03-01T16:08:38;7.10;99.90
57444;DHT22;43289;52.962;6.196;2023-03-01T16:11:05;7.00;99.90
57444;DHT22;43289;52.962;6.196;2023-03-01T16:13:31;7.00;99.90
57444;DHT22;43289;52.962;6.196;2023-03-01T16:15:58;6.90;99.90
57444;DHT22;43289;52.962;6.196;2023-03-01T16:18:24;6.90;99.90
57444;DHT22;43289;52.962;6.196;2023-03-01T16:20:49;6.90;99.90
57444;DHT22;43289;52.962;6.196;2023-03-01T16:23:15;6.90;99.90
57444;DHT22;43289;52.962;6.196;2023-03-01T16:25:41;6.80;99.90
57444;DHT22;43289;52.962;6.196;2023-03-01T16:28:06;6.70;99.90
57444;DHT22;43289;52.962;6.196;2023-03-01T16:30:34;6.70;99.90
57444;DHT22;43289;52.962;6.196;2023-03-01T16:33:00;6.60;99.90
57444;DHT22;43289;52.962;6.196;2023-03-01T16:35:27;6.60;99.90
57444;DHT22;43289;52.962;6.196;2023-03-01T16:37:52;6.50;99.90
57444;DHT22;43289;52.962;6.196;2023-03-01T16:40:24;6.50;99.90
57444;DHT22;43289;52.962;6.196;2023-03-01T16:42:52;6.50;99.90
57444;DHT22;43289;52.962;6.196;2023-03-01T16:53:13;6.40;99.90
57444;DHT22;43289;52.962;6.196;2023-03-01T16:55:39;6.20;99.90
57444;DHT22;43289;52.962;6.196;2023-03-01T16:58:10;6.10;99.90
57444;DHT22;43289;52.962;6.196;2023-03-01T17:00:36;6.00;99.90
57444;DHT22;43289;52.962;6.196;2023-03-01T17:03:01;5.90;99.90
57444;DHT22;43289;52.962;6.196;2023-03-01T17:05:27;5.90;99.90
57444;DHT22;43289;52.962;6.196;2023-03-01T19:54:08;5.80;99.90
57444;DHT22;43289;52.962;6.196;2023-03-01T20:13:43;3.30;99.90
57444;DHT22;43289;52.962;6.196;2023-03-01T20:16:09;3.00;99.90
57444;DHT22;43289;52.962;6.196;2023-03-01T20:18:48;3.00;99.90
57444;DHT22;43289;52.962;6.196;2023-03-01T20:21:13;3.00;99.90
57444;DHT22;43289;52.962;6.196;2023-03-01T20:23:43;3.00;99.90
57444;DHT22;43289;52.962;6.196;2023-03-01T20:26:10;3.00;99.90
57444;DHT22;43289;52.962;6.196;2023-03-01T20:28:41;2.90;99.90
57444;DHT22;43289;52.962;6.196;2023-03-01T20:31:09;2.90;99.90
57444;DHT22;43289;52.962;6.196;2023-03-01T20:33:35;2.80;99.90
57444;DHT22;43289;52.962;6.196;2023-03-01T20:36:05;2.80;99.90
57444;DHT22;43289;52.962;6.196;2023-03-01T20:38:31;2.80;99.90
57444;DHT22;43289;52.962;6.196;2023-03-01T20:41:02;2.80;99.90
57444;DHT22;43289;52.962;6.196;2023-03-01T20:43:28;2.80;99.90
57444;DHT22;43289;52.962;6.196;2023-03-01T20:45:54;2.90;99.90
57444;DHT22;43289;52.962;6.196;2023-03-01T20:48:20;2.90;99.90
57444;DHT22;43289;52.962;6.196;2023-03-01T20:50:46;3.00;99.90
57444;DHT22;43289;52.962;6.196;2023-03-01T20:53:11;3.00;99.90
57444;DHT22;43289;52.962;6.196;2023-03-01T20:55:37;3.00;99.90
57444;DHT22;43289;52.962;6.196;2023-03-01T20:58:03;3.00;99.90
57444;DHT22;43289;52.962;6.196;2023-03-01T21:00:28;3.10;99.90
57444;DHT22;43289;52.962;6.196;2023-03-01T21:02:54;3.10;99.90
57444;DHT22;43289;52.962;6.196;2023-03-01T21:05:20;3.10;99.90
57444;DHT22;43289;52.962;6.196;2023-03-01T21:07:47;3.10;99.90
57444;DHT22;43289;52.962;6.196;2023-03-01T21:10:13;3.10;99.90